createdAt,value
2017-09-16T00:00:31.230Z,1004.07
2017-09-16T00:01:31.209Z,1004.06
2017-09-16T00:02:31.184Z,1004.06
2017-09-16T00:03:31.159Z,1004.06
2017-09-16T00:04:31.136Z,1004.09
2017-09-16T00:05:31.111Z,1004.08
2017-09-16T00:06:31.089Z,1004.09
2017-09-16T00:07:31.065Z,1004.05
2017-09-16T00:08:31.042Z,1004.06
2017-09-16T00:09:31.017Z,1004.02
2017-09-16T00:10:30.994Z,1004.03
2017-09-16T00:11:30.976Z,1003.99
2017-09-16T00:12:30.946Z,1004.04
2017-09-16T00:13:30.923Z,1003.96
2017-09-16T00:14:30.899Z,1003.97
2017-09-16T00:15:30.876Z,1003.95
2017-09-16T00:16:30.855Z,1003.97
2017-09-16T00:17:30.826Z,1003.96
2017-09-16T00:18:30.804Z,1003.93
2017-09-16T00:19:30.781Z,1003.96
2017-09-16T00:20:30.760Z,1003.95
2017-09-16T00:21:30.732Z,1004
2017-09-16T00:22:30.711Z,1004.01
2017-09-16T00:23:30.685Z,1003.98
2017-09-16T00:24:30.661Z,1004
2017-09-16T00:25:30.639Z,1004
2017-09-16T00:26:30.615Z,1004.02
2017-09-16T00:27:30.591Z,1003.97
2017-09-16T00:28:30.568Z,1003.94
2017-09-16T00:29:30.545Z,1003.96
2017-09-16T00:30:30.521Z,1003.9
2017-09-16T00:31:30.499Z,1003.96
2017-09-16T00:32:30.472Z,1003.87
2017-09-16T00:33:30.453Z,1003.92
2017-09-16T00:34:30.424Z,1003.88
2017-09-16T00:35:30.412Z,1003.86
2017-09-16T00:36:30.384Z,1003.91
2017-09-16T00:37:30.354Z,1003.87
2017-09-16T00:38:30.332Z,1003.83
2017-09-16T00:39:30.310Z,1003.87
2017-09-16T00:40:30.283Z,1003.84
2017-09-16T00:41:30.260Z,1003.84
2017-09-16T00:42:30.233Z,1003.82
2017-09-16T00:43:30.211Z,1003.84
2017-09-16T00:44:30.189Z,1003.77
2017-09-16T00:45:30.165Z,1003.8
2017-09-16T00:46:30.145Z,1003.8
2017-09-16T00:47:30.117Z,1003.75
2017-09-16T00:48:30.099Z,1003.77
2017-09-16T00:49:30.074Z,1003.75
2017-09-16T00:50:30.045Z,1003.72
2017-09-16T00:51:30.072Z,1003.76
2017-09-16T00:52:29.999Z,1003.73
2017-09-16T00:53:29.975Z,1003.76
2017-09-16T00:54:29.950Z,1003.69
2017-09-16T00:55:29.930Z,1003.72
2017-09-16T00:56:29.908Z,1003.7
2017-09-16T00:57:29.879Z,1003.72
2017-09-16T00:58:29.879Z,1003.75
2017-09-16T00:59:29.833Z,1003.76
2017-09-16T01:00:29.807Z,1003.76
2017-09-16T01:01:29.801Z,1003.82
2017-09-16T01:02:29.761Z,1003.78
2017-09-16T01:03:29.735Z,1003.71
2017-09-16T01:04:29.712Z,1003.71
2017-09-16T01:05:29.690Z,1003.68
2017-09-16T01:06:29.666Z,1003.67
2017-09-16T01:07:29.640Z,1003.71
2017-09-16T01:08:29.616Z,1003.67
2017-09-16T01:09:29.594Z,1003.73
2017-09-16T01:10:29.571Z,1003.71
2017-09-16T01:11:29.546Z,1003.75
2017-09-16T01:12:29.522Z,1003.69
2017-09-16T01:13:29.505Z,1003.71
2017-09-16T01:14:29.474Z,1003.69
2017-09-16T01:15:29.451Z,1003.68
2017-09-16T01:16:29.426Z,1003.7
2017-09-16T01:17:29.407Z,1003.68
2017-09-16T01:18:29.386Z,1003.68
2017-09-16T01:19:29.358Z,1003.68
2017-09-16T01:20:29.333Z,1003.74
2017-09-16T01:21:29.307Z,1003.67
2017-09-16T01:22:29.284Z,1003.68
2017-09-16T01:23:29.259Z,1003.73
2017-09-16T01:24:29.236Z,1003.64
2017-09-16T01:25:29.219Z,1003.65
2017-09-16T01:26:29.187Z,1003.62
2017-09-16T01:27:29.164Z,1003.66
2017-09-16T01:28:29.142Z,1003.65
2017-09-16T01:29:29.119Z,1003.63
2017-09-16T01:30:29.093Z,1003.64
2017-09-16T01:31:29.071Z,1003.68
2017-09-16T01:32:29.072Z,1003.66
2017-09-16T01:33:29.021Z,1003.62
2017-09-16T01:34:28.998Z,1003.64
2017-09-16T01:35:28.976Z,1003.58
2017-09-16T01:36:28.949Z,1003.62
2017-09-16T01:37:28.926Z,1003.61
2017-09-16T01:38:28.900Z,1003.63
2017-09-16T01:39:28.879Z,1003.6
2017-09-16T01:40:28.851Z,1003.59
2017-09-16T01:41:28.829Z,1003.58
2017-09-16T01:42:28.810Z,1003.58
2017-09-16T01:43:28.784Z,1003.57
2017-09-16T01:44:28.759Z,1003.58
2017-09-16T01:45:28.736Z,1003.54
2017-09-16T01:46:28.712Z,1003.57
2017-09-16T01:47:28.688Z,1003.57
2017-09-16T01:48:28.663Z,1003.56
2017-09-16T01:49:28.637Z,1003.53
2017-09-16T01:50:28.614Z,1003.5
2017-09-16T01:51:28.591Z,1003.5
2017-09-16T01:52:28.566Z,1003.48
2017-09-16T01:53:28.544Z,1003.47
2017-09-16T01:54:28.525Z,1003.47
2017-09-16T01:55:28.497Z,1003.52
2017-09-16T01:56:28.471Z,1003.49
2017-09-16T01:57:28.448Z,1003.46
2017-09-16T01:58:28.430Z,1003.46
2017-09-16T01:59:28.401Z,1003.5
2017-09-16T02:00:28.381Z,1003.43
2017-09-16T02:01:28.353Z,1003.5
2017-09-16T02:02:28.330Z,1003.48
2017-09-16T02:03:28.306Z,1003.47
2017-09-16T02:04:28.280Z,1003.5
2017-09-16T02:05:28.256Z,1003.48
2017-09-16T02:06:28.233Z,1003.46
2017-09-16T02:07:28.213Z,1003.47
2017-09-16T02:08:28.184Z,1003.43
2017-09-16T02:09:28.164Z,1003.46
2017-09-16T02:10:28.136Z,1003.5
2017-09-16T02:11:28.111Z,1003.52
2017-09-16T02:12:28.089Z,1003.45
2017-09-16T02:13:28.063Z,1003.46
2017-09-16T02:14:28.041Z,1003.44
2017-09-16T02:15:28.019Z,1003.5
2017-09-16T02:16:27.996Z,1003.46
2017-09-16T02:17:27.969Z,1003.43
2017-09-16T02:18:27.946Z,1003.45
2017-09-16T02:19:27.920Z,1003.45
2017-09-16T02:20:27.902Z,1003.39
2017-09-16T02:21:27.913Z,1003.45
2017-09-16T02:22:27.851Z,1003.47
2017-09-16T02:23:27.828Z,1003.45
2017-09-16T02:24:27.806Z,1003.48
2017-09-16T02:25:27.777Z,1003.44
2017-09-16T02:26:27.754Z,1003.46
2017-09-16T02:27:27.729Z,1003.54
2017-09-16T02:28:27.702Z,1003.5
2017-09-16T02:29:27.684Z,1003.53
2017-09-16T02:30:27.662Z,1003.53
2017-09-16T02:31:27.686Z,1003.5
2017-09-16T02:32:27.609Z,1003.48
2017-09-16T02:33:27.586Z,1003.49
2017-09-16T02:34:27.563Z,1003.49
2017-09-16T02:35:27.542Z,1003.48
2017-09-16T02:36:27.514Z,1003.45
2017-09-16T02:37:27.491Z,1003.46
2017-09-16T02:38:27.466Z,1003.46
2017-09-16T02:39:27.446Z,1003.5
2017-09-16T02:40:27.417Z,1003.42
2017-09-16T02:41:27.406Z,1003.48
2017-09-16T02:42:27.371Z,1003.43
2017-09-16T02:43:27.346Z,1003.45
2017-09-16T02:44:27.321Z,1003.41
2017-09-16T02:45:27.301Z,1003.45
2017-09-16T02:46:27.274Z,1003.41
2017-09-16T02:47:27.251Z,1003.43
2017-09-16T02:48:27.226Z,1003.43
2017-09-16T02:49:27.202Z,1003.44
2017-09-16T02:50:27.178Z,1003.46
2017-09-16T02:51:27.154Z,1003.44
2017-09-16T02:52:27.132Z,1003.45
2017-09-16T02:53:27.109Z,1003.44
2017-09-16T02:54:27.087Z,1003.46
2017-09-16T02:55:27.059Z,1003.5
2017-09-16T02:56:27.035Z,1003.46
2017-09-16T02:57:27.013Z,1003.49
2017-09-16T02:58:26.989Z,1003.47
2017-09-16T02:59:26.961Z,1003.46
2017-09-16T03:00:26.941Z,1003.48
2017-09-16T03:01:26.914Z,1003.45
2017-09-16T03:02:26.891Z,1003.49
2017-09-16T03:03:26.865Z,1003.46
2017-09-16T03:04:26.842Z,1003.46
2017-09-16T03:05:26.819Z,1003.45
2017-09-16T03:06:26.795Z,1003.48
2017-09-16T03:07:26.773Z,1003.45
2017-09-16T03:08:26.748Z,1003.5
2017-09-16T03:09:26.723Z,1003.52
2017-09-16T03:10:26.703Z,1003.43
2017-09-16T03:11:26.704Z,1003.44
2017-09-16T03:12:26.650Z,1003.48
2017-09-16T03:13:26.625Z,1003.47
2017-09-16T03:14:26.602Z,1003.41
2017-09-16T03:15:26.578Z,1003.38
2017-09-16T03:16:26.553Z,1003.42
2017-09-16T03:17:26.531Z,1003.4
2017-09-16T03:18:26.509Z,1003.38
2017-09-16T03:19:26.484Z,1003.45
2017-09-16T03:20:26.458Z,1003.41
2017-09-16T03:21:26.436Z,1003.42
2017-09-16T03:22:26.414Z,1003.42
2017-09-16T03:23:26.390Z,1003.39
2017-09-16T03:24:26.361Z,1003.44
2017-09-16T03:25:26.346Z,1003.42
2017-09-16T03:26:26.315Z,1003.43
2017-09-16T03:27:26.290Z,1003.43
2017-09-16T03:28:26.267Z,1003.42
2017-09-16T03:29:26.244Z,1003.45
2017-09-16T03:30:26.223Z,1003.4
2017-09-16T03:31:26.196Z,1003.36
2017-09-16T03:32:26.172Z,1003.32
2017-09-16T03:33:26.149Z,1003.37
2017-09-16T03:34:26.123Z,1003.36
2017-09-16T03:35:26.100Z,1003.37
2017-09-16T03:36:26.077Z,1003.34
2017-09-16T03:37:26.052Z,1003.37
2017-09-16T03:38:26.028Z,1003.41
2017-09-16T03:39:26.006Z,1003.36
2017-09-16T03:40:25.982Z,1003.4
2017-09-16T03:41:25.957Z,1003.41
2017-09-16T03:42:25.936Z,1003.4
2017-09-16T03:43:25.912Z,1003.42
2017-09-16T03:44:25.887Z,1003.42
2017-09-16T03:45:25.864Z,1003.45
2017-09-16T03:46:25.863Z,1003.43
2017-09-16T03:47:25.817Z,1003.47
2017-09-16T03:48:25.792Z,1003.48
2017-09-16T03:49:25.769Z,1003.48
2017-09-16T03:50:25.746Z,1003.49
2017-09-16T03:51:25.722Z,1003.46
2017-09-16T03:52:25.696Z,1003.48
2017-09-16T03:53:25.674Z,1003.48
2017-09-16T03:54:25.649Z,1003.49
2017-09-16T03:55:25.624Z,1003.41
2017-09-16T03:56:25.600Z,1003.46
2017-09-16T03:57:25.583Z,1003.41
2017-09-16T03:58:25.554Z,1003.44
2017-09-16T03:59:25.533Z,1003.44
2017-09-16T04:00:25.509Z,1003.43
2017-09-16T04:01:25.490Z,1003.42
2017-09-16T04:02:25.459Z,1003.42
2017-09-16T04:03:25.438Z,1003.42
2017-09-16T04:04:25.411Z,1003.41
2017-09-16T04:05:25.390Z,1003.41
2017-09-16T04:06:25.367Z,1003.37
2017-09-16T04:07:25.345Z,1003.39
2017-09-16T04:08:25.320Z,1003.39
2017-09-16T04:09:25.292Z,1003.39
2017-09-16T04:10:25.270Z,1003.36
2017-09-16T04:11:25.256Z,1003.38
2017-09-16T04:12:25.223Z,1003.34
2017-09-16T04:13:25.203Z,1003.39
2017-09-16T04:14:25.177Z,1003.39
2017-09-16T04:15:25.155Z,1003.4
2017-09-16T04:16:25.132Z,1003.43
2017-09-16T04:17:25.107Z,1003.44
2017-09-16T04:18:25.082Z,1003.41
2017-09-16T04:19:25.060Z,1003.4
2017-09-16T04:20:25.035Z,1003.45
2017-09-16T04:21:25.010Z,1003.41
2017-09-16T04:22:24.991Z,1003.44
2017-09-16T04:23:24.966Z,1003.47
2017-09-16T04:24:24.943Z,1003.43
2017-09-16T04:25:24.921Z,1003.44
2017-09-16T04:26:24.898Z,1003.45
2017-09-16T04:27:24.871Z,1003.41
2017-09-16T04:28:24.850Z,1003.42
2017-09-16T04:29:24.822Z,1003.45
2017-09-16T04:30:24.801Z,1003.45
2017-09-16T04:31:24.776Z,1003.45
2017-09-16T04:32:24.757Z,1003.42
2017-09-16T04:33:24.730Z,1003.47
2017-09-16T04:34:24.706Z,1003.45
2017-09-16T04:35:24.685Z,1003.43
2017-09-16T04:36:24.662Z,1003.41
2017-09-16T04:37:24.635Z,1003.4
2017-09-16T04:38:24.612Z,1003.44
2017-09-16T04:39:24.588Z,1003.42
2017-09-16T04:40:24.566Z,1003.42
2017-09-16T04:41:24.548Z,1003.42
2017-09-16T04:42:24.518Z,1003.4
2017-09-16T04:43:24.496Z,1003.41
2017-09-16T04:44:24.474Z,1003.42
2017-09-16T04:45:24.449Z,1003.41
2017-09-16T04:46:24.425Z,1003.4
2017-09-16T04:47:24.400Z,1003.4
2017-09-16T04:48:24.377Z,1003.42
2017-09-16T04:49:24.354Z,1003.41
2017-09-16T04:50:24.331Z,1003.41
2017-09-16T04:51:24.308Z,1003.44
2017-09-16T04:52:24.280Z,1003.45
2017-09-16T04:53:24.267Z,1003.49
2017-09-16T04:54:24.236Z,1003.48
2017-09-16T04:55:24.213Z,1003.5
2017-09-16T04:56:24.190Z,1003.51
2017-09-16T04:57:24.166Z,1003.53
2017-09-16T04:58:24.143Z,1003.49
2017-09-16T04:59:24.124Z,1003.52
2017-09-16T05:00:24.101Z,1003.53
2017-09-16T05:01:24.074Z,1003.51
2017-09-16T05:02:24.049Z,1003.55
2017-09-16T05:03:24.027Z,1003.58
2017-09-16T05:04:24.002Z,1003.55
2017-09-16T05:05:23.979Z,1003.57
2017-09-16T05:06:23.956Z,1003.56
2017-09-16T05:07:23.933Z,1003.54
2017-09-16T05:08:23.906Z,1003.51
2017-09-16T05:09:23.889Z,1003.51
2017-09-16T05:10:23.860Z,1003.51
2017-09-16T05:11:23.838Z,1003.5
2017-09-16T05:12:23.820Z,1003.48
2017-09-16T05:13:23.795Z,1003.49
2017-09-16T05:14:23.822Z,1003.5
2017-09-16T05:15:23.745Z,1003.48
2017-09-16T05:16:23.722Z,1003.46
2017-09-16T05:17:23.698Z,1003.43
2017-09-16T05:18:23.683Z,1003.46
2017-09-16T05:19:23.654Z,1003.48
2017-09-16T05:20:23.629Z,1003.47
2017-09-16T05:21:23.617Z,1003.47
2017-09-16T05:22:23.585Z,1003.53
2017-09-16T05:23:23.560Z,1003.49
2017-09-16T05:24:23.534Z,1003.5
2017-09-16T05:25:23.738Z,1003.5
2017-09-16T05:26:23.486Z,1003.48
2017-09-16T05:27:23.471Z,1003.5
2017-09-16T05:28:23.442Z,1003.52
2017-09-16T05:29:23.418Z,1003.53
2017-09-16T05:30:23.396Z,1003.53
2017-09-16T05:31:23.372Z,1003.56
2017-09-16T05:32:23.350Z,1003.55
2017-09-16T05:33:23.325Z,1003.57
2017-09-16T05:34:23.310Z,1003.57
2017-09-16T05:35:23.277Z,1003.57
2017-09-16T05:36:23.253Z,1003.61
2017-09-16T05:37:23.250Z,1003.56
2017-09-16T05:38:23.209Z,1003.57
2017-09-16T05:39:23.185Z,1003.57
2017-09-16T05:40:23.160Z,1003.58
2017-09-16T05:41:23.138Z,1003.6
2017-09-16T05:42:23.114Z,1003.55
2017-09-16T05:43:23.095Z,1003.58
2017-09-16T05:44:23.073Z,1003.57
2017-09-16T05:45:23.047Z,1003.53
2017-09-16T05:46:23.021Z,1003.59
2017-09-16T05:47:22.998Z,1003.61
2017-09-16T05:48:22.977Z,1003.62
2017-09-16T05:49:22.952Z,1003.6
2017-09-16T05:50:22.928Z,1003.6
2017-09-16T05:51:22.905Z,1003.61
2017-09-16T05:52:22.885Z,1003.59
2017-09-16T05:53:22.863Z,1003.63
2017-09-16T05:54:22.835Z,1003.59
2017-09-16T05:55:22.812Z,1003.62
2017-09-16T05:56:22.789Z,1003.59
2017-09-16T05:57:22.766Z,1003.6
2017-09-16T05:58:22.743Z,1003.6
2017-09-16T05:59:22.721Z,1003.62
2017-09-16T06:00:22.692Z,1003.63
2017-09-16T06:01:22.671Z,1003.65
2017-09-16T06:02:22.650Z,1003.63
2017-09-16T06:03:22.627Z,1003.64
2017-09-16T06:04:22.603Z,1003.61
2017-09-16T06:05:22.581Z,1003.59
2017-09-16T06:06:22.559Z,1003.61
2017-09-16T06:07:22.534Z,1003.62
2017-09-16T06:08:22.508Z,1003.62
2017-09-16T06:09:22.487Z,1003.6
2017-09-16T06:10:22.466Z,1003.59
2017-09-16T06:11:22.441Z,1003.61
2017-09-16T06:12:22.419Z,1003.63
2017-09-16T06:13:22.396Z,1003.58
2017-09-16T06:14:22.371Z,1003.61
2017-09-16T06:15:22.352Z,1003.57
2017-09-16T06:16:22.325Z,1003.58
2017-09-16T06:17:22.302Z,1003.56
2017-09-16T06:18:22.280Z,1003.61
2017-09-16T06:19:22.257Z,1003.55
2017-09-16T06:20:22.232Z,1003.58
2017-09-16T06:21:22.211Z,1003.62
2017-09-16T06:22:22.187Z,1003.61
2017-09-16T06:23:22.161Z,1003.65
2017-09-16T06:24:22.141Z,1003.65
2017-09-16T06:25:22.119Z,1003.64
2017-09-16T06:26:22.096Z,1003.67
2017-09-16T06:27:22.071Z,1003.65
2017-09-16T06:28:22.050Z,1003.66
2017-09-16T06:29:22.026Z,1003.67
2017-09-16T06:30:22.008Z,1003.68
2017-09-16T06:31:21.981Z,1003.69
2017-09-16T06:32:21.955Z,1003.69
2017-09-16T06:33:21.934Z,1003.7
2017-09-16T06:34:21.909Z,1003.68
2017-09-16T06:35:21.888Z,1003.72
2017-09-16T06:36:21.864Z,1003.7
2017-09-16T06:37:21.841Z,1003.66
2017-09-16T06:38:21.818Z,1003.7
2017-09-16T06:39:21.797Z,1003.73
2017-09-16T06:40:21.773Z,1003.73
2017-09-16T06:41:21.749Z,1003.75
2017-09-16T06:42:21.736Z,1003.73
2017-09-16T06:43:21.708Z,1003.76
2017-09-16T06:44:21.679Z,1003.75
2017-09-16T06:45:21.659Z,1003.72
2017-09-16T06:46:21.634Z,1003.76
2017-09-16T06:47:21.615Z,1003.74
2017-09-16T06:48:21.588Z,1003.71
2017-09-16T06:49:21.567Z,1003.74
2017-09-16T06:50:21.543Z,1003.75
2017-09-16T06:51:21.522Z,1003.79
2017-09-16T06:52:21.499Z,1003.76
2017-09-16T06:53:21.478Z,1003.84
2017-09-16T06:54:21.453Z,1003.81
2017-09-16T06:55:21.429Z,1003.83
2017-09-16T06:56:21.406Z,1003.8
2017-09-16T06:57:21.435Z,1003.82
2017-09-16T06:58:21.362Z,1003.83
2017-09-16T06:59:21.340Z,1003.82
2017-09-16T07:00:21.317Z,1003.84
2017-09-16T07:01:21.292Z,1003.84
2017-09-16T07:02:21.271Z,1003.85
2017-09-16T07:03:21.247Z,1003.88
2017-09-16T07:04:21.426Z,1003.85
2017-09-16T07:05:21.205Z,1003.83
2017-09-16T07:06:21.182Z,1003.87
2017-09-16T07:07:21.158Z,1003.89
2017-09-16T07:08:21.137Z,1003.93
2017-09-16T07:09:21.114Z,1003.82
2017-09-16T07:10:21.090Z,1003.86
2017-09-16T07:11:21.071Z,1003.88
2017-09-16T07:12:21.050Z,1003.9
2017-09-16T07:13:21.037Z,1003.88
2017-09-16T07:14:21.006Z,1003.9
2017-09-16T07:15:20.988Z,1003.93
2017-09-16T07:16:20.965Z,1003.93
2017-09-16T07:17:20.949Z,1003.99
2017-09-16T07:18:20.928Z,1003.93
2017-09-16T07:19:20.908Z,1003.97
2017-09-16T07:20:20.887Z,1003.99
2017-09-16T07:21:20.867Z,1003.97
2017-09-16T07:22:20.849Z,1003.97
2017-09-16T07:23:20.829Z,1004.05
2017-09-16T07:24:20.814Z,1004.05
2017-09-16T07:25:20.795Z,1004.03
2017-09-16T07:26:20.775Z,1004.03
2017-09-16T07:27:20.808Z,1004.03
2017-09-16T07:28:20.739Z,1004.09
2017-09-16T07:29:20.722Z,1004.09
2017-09-16T07:30:20.705Z,1004.08
2017-09-16T07:31:20.687Z,1004.11
2017-09-16T07:32:20.670Z,1004.13
2017-09-16T07:33:20.654Z,1004.17
2017-09-16T07:34:20.661Z,1004.08
2017-09-16T07:35:20.617Z,1004.14
2017-09-16T07:36:20.601Z,1004.14
2017-09-16T07:37:20.588Z,1004.1
2017-09-16T07:38:20.571Z,1004.14
2017-09-16T07:39:20.554Z,1004.19
2017-09-16T07:40:20.540Z,1004.22
2017-09-16T07:41:20.522Z,1004.22
2017-09-16T07:42:20.506Z,1004.21
2017-09-16T07:43:20.495Z,1004.23
2017-09-16T07:44:20.476Z,1004.24
2017-09-16T07:45:20.464Z,1004.25
2017-09-16T07:46:20.445Z,1004.26
2017-09-16T07:47:20.431Z,1004.28
2017-09-16T07:48:20.414Z,1004.25
2017-09-16T07:49:20.399Z,1004.26
2017-09-16T07:50:20.383Z,1004.28
2017-09-16T07:51:20.367Z,1004.27
2017-09-16T07:52:20.352Z,1004.3
2017-09-16T07:53:20.337Z,1004.27
2017-09-16T07:54:20.320Z,1004.25
2017-09-16T07:55:20.307Z,1004.27
2017-09-16T07:56:20.293Z,1004.32
2017-09-16T07:57:20.276Z,1004.34
2017-09-16T07:58:20.260Z,1004.35
2017-09-16T07:59:20.246Z,1004.39
2017-09-16T08:00:20.236Z,1004.36
2017-09-16T08:01:20.217Z,1004.32
2017-09-16T08:02:20.202Z,1004.36
2017-09-16T08:03:20.191Z,1004.35
2017-09-16T08:04:20.175Z,1004.36
2017-09-16T08:05:20.158Z,1004.37
2017-09-16T08:06:20.149Z,1004.41
2017-09-16T08:07:20.135Z,1004.42
2017-09-16T08:08:20.121Z,1004.41
2017-09-16T08:09:20.108Z,1004.4
2017-09-16T08:10:20.096Z,1004.37
2017-09-16T08:11:20.081Z,1004.47
2017-09-16T08:12:20.067Z,1004.45
2017-09-16T08:13:20.050Z,1004.45
2017-09-16T08:14:20.037Z,1004.45
2017-09-16T08:15:20.075Z,1004.47
2017-09-16T08:16:20.006Z,1004.44
2017-09-16T08:17:19.991Z,1004.43
2017-09-16T08:18:19.976Z,1004.39
2017-09-16T08:19:19.961Z,1004.44
2017-09-16T08:20:19.946Z,1004.46
2017-09-16T08:21:19.933Z,1004.45
2017-09-16T08:22:19.914Z,1004.49
2017-09-16T08:23:19.905Z,1004.41
2017-09-16T08:24:19.891Z,1004.46
2017-09-16T08:25:19.924Z,1004.47
2017-09-16T08:26:19.859Z,1004.48
2017-09-16T08:27:19.849Z,1004.46
2017-09-16T08:28:19.841Z,1004.42
2017-09-16T08:29:19.823Z,1004.46
2017-09-16T08:30:19.811Z,1004.5
2017-09-16T08:31:19.799Z,1004.47
2017-09-16T08:32:19.792Z,1004.48
2017-09-16T08:33:19.776Z,1004.45
2017-09-16T08:34:19.761Z,1004.5
2017-09-16T08:35:19.746Z,1004.52
2017-09-16T08:36:19.736Z,1004.45
2017-09-16T08:37:19.720Z,1004.48
2017-09-16T08:38:19.710Z,1004.53
2017-09-16T08:39:19.701Z,1004.5
2017-09-16T08:40:19.687Z,1004.55
2017-09-16T08:41:19.672Z,1004.49
2017-09-16T08:42:19.667Z,1004.5
2017-09-16T08:43:19.650Z,1004.53
2017-09-16T08:44:19.639Z,1004.5
2017-09-16T08:45:19.627Z,1004.54
2017-09-16T08:46:19.611Z,1004.55
2017-09-16T08:47:19.601Z,1004.55
2017-09-16T08:48:19.588Z,1004.53
2017-09-16T08:49:19.577Z,1004.54
2017-09-16T08:50:19.563Z,1004.55
2017-09-16T08:51:19.552Z,1004.58
2017-09-16T08:52:19.539Z,1004.62
2017-09-16T08:53:19.526Z,1004.58
2017-09-16T08:54:19.513Z,1004.64
2017-09-16T08:55:19.497Z,1004.6
2017-09-16T08:56:19.484Z,1004.65
2017-09-16T08:57:19.469Z,1004.62
2017-09-16T08:58:19.457Z,1004.65
2017-09-16T08:59:19.440Z,1004.63
2017-09-16T09:00:19.425Z,1004.64
2017-09-16T09:01:19.410Z,1004.61
2017-09-16T09:02:19.394Z,1004.64
2017-09-16T09:03:19.377Z,1004.63
2017-09-16T09:04:19.362Z,1004.61
2017-09-16T09:05:19.345Z,1004.64
2017-09-16T09:06:19.332Z,1004.63
2017-09-16T09:07:19.315Z,1004.63
2017-09-16T09:08:19.302Z,1004.67
2017-09-16T09:09:19.288Z,1004.67
2017-09-16T09:10:19.266Z,1004.65
2017-09-16T09:11:19.252Z,1004.65
2017-09-16T09:12:19.231Z,1004.7
2017-09-16T09:13:19.216Z,1004.64
2017-09-16T09:14:19.198Z,1004.67
2017-09-16T09:15:19.184Z,1004.68
2017-09-16T09:16:19.164Z,1004.65
2017-09-16T09:17:19.146Z,1004.65
2017-09-16T09:18:19.130Z,1004.66
2017-09-16T09:19:19.112Z,1004.7
2017-09-16T09:20:19.095Z,1004.64
2017-09-16T09:21:19.075Z,1004.67
2017-09-16T09:22:19.064Z,1004.69
2017-09-16T09:23:19.043Z,1004.68
2017-09-16T09:24:19.026Z,1004.66
2017-09-16T09:25:19.007Z,1004.68
2017-09-16T09:26:18.993Z,1004.72
2017-09-16T09:27:18.972Z,1004.69
2017-09-16T09:28:18.955Z,1004.65
2017-09-16T09:29:18.934Z,1004.69
2017-09-16T09:30:18.915Z,1004.67
2017-09-16T09:31:18.899Z,1004.7
2017-09-16T09:32:18.879Z,1004.69
2017-09-16T09:33:18.908Z,1004.66
2017-09-16T09:34:18.840Z,1004.72
2017-09-16T09:35:18.821Z,1004.67
2017-09-16T09:36:18.802Z,1004.69
2017-09-16T09:37:18.788Z,1004.66
2017-09-16T09:38:18.770Z,1004.68
2017-09-16T09:39:18.746Z,1004.68
2017-09-16T09:40:18.729Z,1004.67
2017-09-16T09:41:18.712Z,1004.72
2017-09-16T09:42:18.692Z,1004.69
2017-09-16T09:43:18.673Z,1004.7
2017-09-16T09:44:18.658Z,1004.65
2017-09-16T09:45:18.641Z,1004.71
2017-09-16T09:46:18.621Z,1004.63
2017-09-16T09:47:18.603Z,1004.69
2017-09-16T09:48:18.587Z,1004.6
2017-09-16T09:49:18.565Z,1004.55
2017-09-16T09:50:18.553Z,1004.61
2017-09-16T09:51:18.533Z,1004.68
2017-09-16T09:52:18.517Z,1004.67
2017-09-16T09:53:18.498Z,1004.7
2017-09-16T09:54:18.480Z,1004.66
2017-09-16T09:55:18.463Z,1004.63
2017-09-16T09:56:18.444Z,1004.65
2017-09-16T09:57:18.428Z,1004.64
2017-09-16T09:58:18.409Z,1004.64
2017-09-16T09:59:18.391Z,1004.67
2017-09-16T10:00:18.374Z,1004.64
2017-09-16T10:01:18.356Z,1004.63
2017-09-16T10:02:18.335Z,1004.64
2017-09-16T10:03:18.321Z,1004.61
2017-09-16T10:04:18.300Z,1004.63
2017-09-16T10:05:18.284Z,1004.63
2017-09-16T10:06:18.265Z,1004.6
2017-09-16T10:07:18.249Z,1004.62
2017-09-16T10:08:18.232Z,1004.6
2017-09-16T10:09:18.207Z,1004.59
2017-09-16T10:10:18.190Z,1004.62
2017-09-16T10:11:18.171Z,1004.6
2017-09-16T10:12:18.152Z,1004.62
2017-09-16T10:13:18.138Z,1004.65
2017-09-16T10:14:18.120Z,1004.66
2017-09-16T10:15:18.099Z,1004.61
2017-09-16T10:16:18.077Z,1004.63
2017-09-16T10:17:18.056Z,1004.64
2017-09-16T10:18:18.036Z,1004.68
2017-09-16T10:19:18.018Z,1004.74
2017-09-16T10:20:17.999Z,1004.7
2017-09-16T10:21:17.981Z,1004.71
2017-09-16T10:22:17.961Z,1004.72
2017-09-16T10:23:17.939Z,1004.68
2017-09-16T10:24:17.919Z,1004.7
2017-09-16T10:25:17.900Z,1004.71
2017-09-16T10:26:17.881Z,1004.68
2017-09-16T10:27:17.862Z,1004.65
2017-09-16T10:28:17.846Z,1004.63
2017-09-16T10:29:17.824Z,1004.6
2017-09-16T10:30:17.804Z,1004.62
2017-09-16T10:31:17.788Z,1004.62
2017-09-16T10:32:17.766Z,1004.63
2017-09-16T10:33:17.746Z,1004.66
2017-09-16T10:34:17.731Z,1004.63
2017-09-16T10:35:17.713Z,1004.66
2017-09-16T10:36:17.688Z,1004.67
2017-09-16T10:37:17.670Z,1004.63
2017-09-16T10:38:17.650Z,1004.64
2017-09-16T10:39:17.632Z,1004.65
2017-09-16T10:40:17.613Z,1004.65
2017-09-16T10:41:17.594Z,1004.62
2017-09-16T10:42:17.572Z,1004.66
2017-09-16T10:43:17.558Z,1004.63
2017-09-16T10:44:17.532Z,1004.6
2017-09-16T10:45:17.516Z,1004.6
2017-09-16T10:46:17.493Z,1004.62
2017-09-16T10:47:17.477Z,1004.65
2017-09-16T10:48:17.514Z,1004.63
2017-09-16T10:49:17.442Z,1004.6
2017-09-16T10:50:17.420Z,1004.68
2017-09-16T10:51:17.402Z,1004.65
2017-09-16T10:52:17.381Z,1004.65
2017-09-16T10:53:17.363Z,1004.65
2017-09-16T10:54:17.344Z,1004.63
2017-09-16T10:55:17.332Z,1004.61
2017-09-16T10:56:17.307Z,1004.64
2017-09-16T10:57:17.289Z,1004.73
2017-09-16T10:58:17.266Z,1004.68
2017-09-16T10:59:17.247Z,1004.69
2017-09-16T11:00:17.227Z,1004.65
2017-09-16T11:01:17.208Z,1004.68
2017-09-16T11:02:17.189Z,1004.65
2017-09-16T11:03:17.170Z,1004.66
2017-09-16T11:04:17.155Z,1004.65
2017-09-16T11:05:17.131Z,1004.64
2017-09-16T11:06:17.114Z,1004.65
2017-09-16T11:07:17.095Z,1004.72
2017-09-16T11:08:17.127Z,1004.63
2017-09-16T11:09:17.054Z,1004.62
2017-09-16T11:10:17.036Z,1004.6
2017-09-16T11:11:17.017Z,1004.63
2017-09-16T11:12:16.997Z,1004.65
2017-09-16T11:13:16.978Z,1004.6
2017-09-16T11:14:16.963Z,1004.57
2017-09-16T11:15:16.939Z,1004.59
2017-09-16T11:16:16.926Z,1004.63
2017-09-16T11:17:16.901Z,1004.61
2017-09-16T11:18:16.879Z,1004.6
2017-09-16T11:19:16.864Z,1004.54
2017-09-16T11:20:16.843Z,1004.52
2017-09-16T11:21:16.827Z,1004.54
2017-09-16T11:22:16.802Z,1004.58
2017-09-16T11:23:16.783Z,1004.47
2017-09-16T11:24:16.766Z,1004.56
2017-09-16T11:25:16.747Z,1004.58
2017-09-16T11:26:16.724Z,1004.55
2017-09-16T11:27:16.707Z,1004.57
2017-09-16T11:28:16.692Z,1004.57
2017-09-16T11:29:16.668Z,1004.54
2017-09-16T11:30:16.651Z,1004.55
2017-09-16T11:31:16.629Z,1004.54
2017-09-16T11:32:16.610Z,1004.54
2017-09-16T11:33:16.590Z,1004.55
2017-09-16T11:34:16.573Z,1004.5
2017-09-16T11:35:16.550Z,1004.53
2017-09-16T11:36:16.533Z,1004.52
2017-09-16T11:37:16.519Z,1004.54
2017-09-16T11:38:16.496Z,1004.53
2017-09-16T11:39:16.476Z,1004.55
2017-09-16T11:40:16.456Z,1004.56
2017-09-16T11:41:16.487Z,1004.62
2017-09-16T11:42:16.420Z,1004.63
2017-09-16T11:43:16.400Z,1004.63
2017-09-16T11:44:16.383Z,1004.64
2017-09-16T11:45:16.360Z,1004.6
2017-09-16T11:46:16.341Z,1004.67
2017-09-16T11:47:16.320Z,1004.64
2017-09-16T11:48:16.303Z,1004.6
2017-09-16T11:49:16.280Z,1004.6
2017-09-16T11:50:16.261Z,1004.62
2017-09-16T11:51:16.241Z,1004.71
2017-09-16T11:52:16.222Z,1004.67
2017-09-16T11:53:16.200Z,1004.68
2017-09-16T11:54:16.184Z,1004.66
2017-09-16T11:55:16.160Z,1004.64
2017-09-16T11:56:16.146Z,1004.7
2017-09-16T11:57:16.124Z,1004.7
2017-09-16T11:58:16.101Z,1004.67
2017-09-16T11:59:16.084Z,1004.7
2017-09-16T12:00:16.060Z,1004.68
2017-09-16T12:01:16.045Z,1004.69
2017-09-16T12:02:16.022Z,1004.69
2017-09-16T12:03:15.998Z,1004.7
2017-09-16T12:04:15.979Z,1004.73
2017-09-16T12:05:15.959Z,1004.71
2017-09-16T12:06:15.937Z,1004.7
2017-09-16T12:07:15.917Z,1004.71
2017-09-16T12:08:15.898Z,1004.71